createdAt,value
2023-02-04T00:01:20.835Z,61.22
2023-02-04T00:03:53.555Z,61.17
2023-02-04T00:06:25.862Z,61.20
2023-02-04T00:08:58.203Z,61.16
2023-02-04T00:11:30.496Z,61.08
2023-02-04T00:14:02.761Z,61.11
2023-02-04T00:16:35.012Z,61.15
2023-02-04T00:19:07.233Z,61.10
2023-02-04T00:21:39.460Z,61.21
2023-02-04T00:24:11.678Z,61.29
2023-02-04T00:26:43.973Z,61.11
2023-02-04T00:29:16.288Z,61.42
2023-02-04T00:31:48.761Z,61.16
2023-02-04T00:34:21.189Z,61.42
2023-02-04T00:36:53.470Z,61.16
2023-02-04T00:39:25.889Z,61.29
2023-02-04T00:41:58.274Z,61.29
2023-02-04T00:44:30.580Z,61.36
2023-02-04T00:47:02.759Z,61.34
2023-02-04T00:49:36.350Z,61.38
2023-02-04T00:52:08.817Z,61.48
2023-02-04T00:54:41.127Z,61.25
2023-02-04T00:57:13.475Z,61.31
2023-02-04T00:59:45.929Z,61.25
2023-02-04T01:02:18.636Z,61.47
2023-02-04T01:04:50.989Z,61.37
2023-02-04T01:07:23.401Z,61.48
2023-02-04T01:09:55.760Z,61.58
2023-02-04T01:12:28.913Z,61.78
2023-02-04T01:15:02.075Z,61.72
2023-02-04T01:17:34.587Z,61.54
2023-02-04T01:20:07.442Z,61.93
2023-02-04T01:22:39.719Z,61.88
2023-02-04T01:25:12.644Z,61.85
2023-02-04T01:27:45.047Z,61.91
2023-02-04T01:30:18.480Z,61.96
2023-02-04T01:32:50.785Z,61.95
2023-02-04T01:35:23.108Z,62.07
2023-02-04T01:37:55.531Z,62.04
2023-02-04T01:40:27.979Z,62.07
2023-02-04T01:43:00.890Z,62.19
2023-02-04T01:45:34.641Z,62.52
2023-02-04T01:48:08.657Z,62.46
2023-02-04T01:50:40.981Z,62.56
2023-02-04T01:53:13.372Z,62.69
2023-02-04T01:55:45.761Z,62.74
2023-02-04T01:58:18.869Z,62.91
2023-02-04T02:00:51.289Z,63.14
2023-02-04T02:03:23.651Z,63.02
2023-02-04T02:05:57.301Z,63.24
2023-02-04T02:08:29.642Z,63.20
2023-02-04T02:11:02.010Z,63.56
2023-02-04T02:13:34.342Z,63.48
2023-02-04T02:16:07.252Z,63.79
2023-02-04T02:18:39.553Z,63.69
2023-02-04T02:21:14.983Z,64.07
2023-02-04T02:23:51.579Z,64.01
2023-02-04T02:26:25.947Z,64.40
2023-02-04T02:28:58.267Z,64.58
2023-02-04T02:31:30.683Z,64.58
2023-02-04T02:34:03.369Z,64.66
2023-02-04T02:36:35.676Z,64.68
2023-02-04T02:39:08.183Z,64.94
2023-02-04T02:41:40.565Z,64.75
2023-02-04T02:44:15.508Z,65.20
2023-02-04T02:46:48.086Z,65.03
2023-02-04T02:49:21.806Z,65.13
2023-02-04T02:51:54.220Z,65.19
2023-02-04T02:54:28.643Z,65.37
2023-02-04T02:57:01.653Z,65.38
2023-02-04T02:59:33.822Z,65.44
2023-02-04T03:02:07.127Z,65.46
2023-02-04T03:04:43.354Z,65.70
2023-02-04T03:07:18.389Z,65.65
2023-02-04T03:09:52.553Z,65.55
2023-02-04T03:12:24.997Z,65.62
2023-02-04T03:14:57.546Z,65.70
2023-02-04T03:17:30.695Z,65.92
2023-02-04T03:20:03.681Z,66.00
2023-02-04T03:22:36.829Z,65.88
2023-02-04T03:25:10.355Z,66.02
2023-02-04T03:27:42.754Z,66.02
2023-02-04T03:30:15.293Z,66.07
2023-02-04T03:32:47.586Z,66.27
2023-02-04T03:35:21.008Z,66.32
2023-02-04T03:37:53.446Z,66.26
2023-02-04T03:40:25.683Z,66.35
2023-02-04T03:42:57.985Z,66.36
2023-02-04T03:45:37.481Z,66.78
2023-02-04T03:48:16.320Z,66.71
2023-02-04T03:50:48.788Z,66.67
2023-02-04T03:53:22.230Z,66.90
2023-02-04T03:55:54.579Z,66.69
2023-02-04T03:58:27.318Z,66.80
2023-02-04T04:00:59.552Z,66.89
2023-02-04T04:03:31.813Z,66.99
2023-02-04T04:06:06.475Z,66.98
2023-02-04T04:08:38.835Z,66.99
2023-02-04T04:11:11.241Z,66.94
2023-02-04T04:13:43.615Z,67.12
2023-02-04T04:16:15.927Z,67.24
2023-02-04T04:18:48.162Z,67.21
2023-02-04T04:21:20.398Z,67.38
2023-02-04T04:23:52.742Z,67.39
2023-02-04T04:26:25.189Z,67.31
2023-02-04T04:28:57.420Z,67.49
2023-02-04T04:31:29.994Z,67.35
2023-02-04T04:34:02.731Z,67.56
2023-02-04T04:36:34.960Z,67.52
2023-02-04T04:39:07.411Z,67.67
2023-02-04T04:41:39.616Z,67.50
2023-02-04T04:44:12.075Z,67.70
2023-02-04T04:46:44.378Z,67.57
2023-02-04T04:49:17.145Z,67.93
2023-02-04T04:51:49.529Z,67.74
2023-02-04T04:54:21.875Z,68.02
2023-02-04T04:56:54.274Z,67.93
2023-02-04T04:59:26.549Z,68.14
2023-02-04T05:01:58.859Z,68.08
2023-02-04T05:04:31.302Z,68.19
2023-02-04T05:07:03.613Z,68.14
2023-02-04T05:09:35.921Z,68.31
2023-02-04T05:12:08.803Z,68.33
2023-02-04T05:14:41.084Z,68.35
2023-02-04T05:17:13.413Z,68.34
2023-02-04T05:19:45.649Z,68.37
2023-02-04T05:22:17.908Z,68.47
2023-02-04T05:24:50.237Z,68.34
2023-02-04T05:27:22.530Z,68.53
2023-02-04T05:29:54.828Z,68.51
2023-02-04T05:32:27.121Z,68.44
2023-02-04T05:34:59.467Z,68.67
2023-02-04T05:37:31.875Z,68.56
2023-02-04T05:40:04.181Z,68.79
2023-02-04T05:42:36.491Z,68.64
2023-02-04T05:45:11.028Z,68.77
2023-02-04T05:47:43.326Z,68.73
2023-02-04T05:50:15.940Z,68.89
2023-02-04T05:52:48.315Z,68.96
2023-02-04T05:55:20.722Z,69.05
2023-02-04T05:57:52.955Z,68.98
2023-02-04T06:00:25.872Z,68.83
2023-02-04T06:02:58.162Z,68.89
2023-02-04T06:05:30.603Z,68.94
2023-02-04T06:08:03.043Z,69.00
2023-02-04T06:10:35.296Z,69.10
2023-02-04T06:13:07.523Z,69.19
2023-02-04T06:15:40.034Z,69.19
2023-02-04T06:18:12.576Z,69.26
2023-02-04T06:20:45.126Z,69.24
2023-02-04T06:23:17.514Z,69.38
2023-02-04T06:25:50.526Z,69.36
2023-02-04T06:28:22.814Z,69.33
2023-02-04T06:30:55.252Z,69.40
2023-02-04T06:33:27.628Z,69.26
2023-02-04T06:36:00.010Z,69.41
2023-02-04T06:38:32.294Z,69.25
2023-02-04T06:41:04.570Z,69.40
2023-02-04T06:43:36.858Z,69.42
2023-02-04T06:46:09.318Z,69.42
2023-02-04T06:48:41.597Z,69.48
2023-02-04T06:51:13.960Z,69.40
2023-02-04T06:53:46.240Z,69.48
2023-02-04T06:56:18.507Z,69.57
2023-02-04T06:58:51.007Z,69.70
2023-02-04T07:01:23.638Z,69.76
2023-02-04T07:03:55.928Z,69.87
2023-02-04T07:06:28.234Z,69.90
2023-02-04T07:09:00.613Z,69.74
2023-02-04T07:11:32.909Z,69.57
2023-02-04T07:14:05.531Z,69.56
2023-02-04T07:16:37.734Z,69.69
2023-02-04T07:19:09.993Z,69.88
2023-02-04T07:21:42.166Z,69.62
2023-02-04T07:24:14.507Z,69.69
2023-02-04T07:26:46.786Z,69.75
2023-02-04T07:29:25.193Z,69.65
2023-02-04T07:31:58.293Z,69.69
2023-02-04T07:34:30.691Z,69.60
2023-02-04T07:37:03.150Z,69.57
2023-02-04T07:39:35.557Z,69.80
2023-02-04T07:42:08.041Z,69.69
2023-02-04T07:44:40.354Z,69.55
2023-02-04T07:47:12.872Z,69.81
2023-02-04T07:49:45.081Z,69.72
2023-02-04T07:52:17.464Z,69.94
2023-02-04T07:54:49.774Z,69.84
2023-02-04T07:57:22.085Z,69.77
2023-02-04T07:59:54.328Z,69.89
2023-02-04T08:02:26.976Z,69.78
2023-02-04T08:04:59.414Z,69.73
2023-02-04T08:07:31.731Z,69.75
2023-02-04T08:10:03.991Z,69.75
2023-02-04T08:12:36.364Z,69.87
2023-02-04T08:15:09.717Z,69.73
2023-02-04T08:17:41.958Z,69.74
2023-02-04T08:20:16.686Z,69.77
2023-02-04T08:22:49.102Z,69.70
2023-02-04T08:25:21.394Z,69.76
2023-02-04T08:27:53.641Z,69.81
2023-02-04T08:30:26.168Z,69.71
2023-02-04T08:32:58.468Z,69.62
2023-02-04T08:35:30.889Z,69.63
2023-02-04T08:38:03.211Z,69.70
2023-02-04T08:40:35.466Z,69.73
2023-02-04T08:43:07.864Z,69.66
2023-02-04T08:45:40.593Z,69.82
2023-02-04T08:48:12.954Z,69.51
2023-02-04T08:50:45.157Z,69.80
2023-02-04T08:53:17.711Z,69.77
2023-02-04T08:55:50.025Z,69.48
2023-02-04T08:58:22.234Z,69.54
2023-02-04T09:00:54.650Z,69.51
2023-02-04T09:03:26.921Z,69.28
2023-02-04T09:05:59.209Z,69.04
2023-02-04T09:08:31.536Z,68.96
2023-02-04T09:11:04.553Z,68.74
2023-02-04T09:13:36.795Z,68.47
2023-02-04T09:16:11.134Z,68.61
2023-02-04T09:18:43.480Z,68.57
2023-02-04T09:21:15.729Z,68.47
2023-02-04T09:23:48.881Z,68.51
2023-02-04T09:26:21.131Z,68.12
2023-02-04T09:28:53.570Z,68.04
2023-02-04T09:31:26.027Z,67.91
2023-02-04T09:33:58.248Z,67.89
2023-02-04T09:36:32.892Z,67.77
2023-02-04T09:39:06.114Z,67.81
2023-02-04T09:41:40.212Z,68.04
2023-02-04T09:44:17.770Z,67.62
2023-02-04T09:46:52.305Z,67.49
2023-02-04T09:49:24.941Z,67.52
2023-02-04T09:51:58.027Z,67.38
2023-02-04T09:54:30.600Z,67.40
2023-02-04T09:57:02.823Z,67.13
2023-02-04T09:59:36.944Z,66.83
2023-02-04T10:02:21.875Z,66.85
2023-02-04T10:04:58.157Z,66.31
2023-02-04T10:07:32.570Z,66.29
2023-02-04T10:10:05.075Z,66.14
2023-02-04T10:12:37.361Z,65.83
2023-02-04T10:15:14.237Z,65.33
2023-02-04T10:17:47.485Z,65.52
2023-02-04T10:20:23.900Z,65.60
2023-02-04T10:22:57.356Z,65.76
2023-02-04T10:25:29.592Z,65.45
2023-02-04T10:28:03.798Z,65.51
2023-02-04T10:30:44.446Z,65.65
2023-02-04T10:33:24.897Z,65.57
2023-02-04T10:35:58.554Z,65.76
2023-02-04T10:38:30.887Z,65.63
2023-02-04T10:41:07.411Z,65.50
2023-02-04T10:43:39.730Z,65.50
2023-02-04T10:46:12.124Z,65.64
2023-02-04T10:48:44.998Z,65.64
2023-02-04T10:51:17.222Z,65.18
2023-02-04T10:54:21.578Z,65.39
2023-02-04T10:56:53.986Z,65.32
2023-02-04T10:59:29.276Z,65.26
2023-02-04T11:02:03.323Z,65.07
2023-02-04T11:04:35.674Z,65.13
2023-02-04T11:07:12.407Z,65.04
2023-02-04T11:09:48.035Z,64.90
2023-02-04T11:12:37.148Z,64.77
2023-02-04T11:15:24.545Z,64.79
2023-02-04T11:18:07.159Z,64.73
2023-02-04T11:20:41.067Z,64.55
2023-02-04T11:23:36.423Z,64.28
2023-02-04T11:26:13.457Z,64.60
2023-02-04T11:28:57.501Z,64.25
2023-02-04T11:31:42.766Z,64.27
2023-02-04T11:34:29.134Z,64.19
2023-02-04T11:37:14.537Z,64.34
2023-02-04T11:39:48.271Z,64.09
2023-02-04T11:42:25.534Z,63.69
2023-02-04T11:45:02.015Z,63.83
2023-02-04T11:47:39.653Z,63.52
2023-02-04T11:50:21.407Z,63.89
2023-02-04T11:52:55.310Z,64.02
2023-02-04T11:55:28.082Z,63.71
2023-02-04T11:58:00.806Z,63.79
2023-02-04T12:00:34.737Z,63.98
2023-02-04T12:03:22.012Z,63.79
2023-02-04T12:05:56.206Z,63.50
2023-02-04T12:08:34.959Z,63.56
2023-02-04T12:11:12.373Z,63.25
2023-02-04T12:13:52.679Z,63.40
2023-02-04T12:16:25.593Z,63.58
2023-02-04T12:18:58.001Z,63.33
2023-02-04T12:21:30.238Z,63.16
2023-02-04T12:24:02.582Z,63.25
2023-02-04T12:26:34.870Z,62.98
2023-02-04T12:29:07.326Z,63.00
2023-02-04T12:31:39.845Z,62.92
2023-02-04T12:34:12.311Z,63.02
2023-02-04T12:36:44.859Z,62.93
2023-02-04T12:39:17.230Z,62.58
2023-02-04T12:41:49.571Z,62.80
2023-02-04T12:44:21.823Z,62.68
2023-02-04T12:46:55.387Z,62.57
2023-02-04T12:49:27.760Z,62.99
2023-02-04T12:52:02.353Z,62.49
2023-02-04T12:54:34.638Z,62.34
2023-02-04T12:57:06.969Z,62.30
2023-02-04T12:59:39.272Z,62.20
2023-02-04T13:02:12.525Z,62.28
2023-02-04T13:04:44.892Z,62.01
2023-02-04T13:07:17.208Z,61.52
2023-02-04T13:09:49.531Z,61.82
2023-02-04T13:12:21.846Z,61.91
2023-02-04T13:14:54.086Z,61.88
2023-02-04T13:17:26.423Z,61.79
2023-02-04T13:19:58.851Z,62.06
2023-02-04T13:22:31.114Z,62.00
2023-02-04T13:25:04.275Z,62.07
2023-02-04T13:27:36.932Z,61.73
2023-02-04T13:30:13.051Z,61.94
2023-02-04T13:32:45.482Z,61.79
2023-02-04T13:35:19.546Z,61.90
2023-02-04T13:37:51.819Z,61.65
2023-02-04T13:40:24.294Z,61.70
2023-02-04T13:42:56.518Z,61.53
2023-02-04T13:45:29.003Z,61.64
2023-02-04T13:48:01.212Z,61.44
2023-02-04T13:50:33.876Z,61.74
2023-02-04T13:53:06.524Z,61.51
2023-02-04T13:55:38.879Z,61.74
2023-02-04T13:58:11.156Z,61.28
2023-02-04T14:00:43.369Z,61.54
2023-02-04T14:03:15.788Z,61.51
2023-02-04T14:05:48.029Z,61.31
2023-02-04T14:08:20.425Z,61.62
2023-02-04T14:10:52.751Z,61.59
2023-02-04T14:13:25.092Z,61.57
2023-02-04T14:15:57.297Z,61.34
2023-02-04T14:18:29.605Z,61.61
2023-02-04T14:21:02.023Z,61.74
2023-02-04T14:23:34.322Z,61.78
2023-02-04T14:26:06.818Z,61.69
2023-02-04T14:28:39.011Z,61.90
2023-02-04T14:31:11.434Z,61.86
2023-02-04T14:33:43.705Z,61.91
2023-02-04T14:36:16.154Z,61.99
2023-02-04T14:38:49.011Z,62.23
2023-02-04T14:41:21.645Z,62.28
2023-02-04T14:43:54.937Z,62.35
2023-02-04T14:46:27.407Z,62.35
2023-02-04T14:48:59.625Z,62.38
2023-02-04T14:51:31.964Z,62.23
2023-02-04T14:54:04.328Z,62.50
2023-02-04T14:56:36.724Z,62.23
2023-02-04T14:59:09.165Z,62.41
2023-02-04T15:01:42.469Z,62.73
2023-02-04T15:04:15.005Z,62.82
2023-02-04T15:06:47.793Z,62.81
2023-02-04T15:09:20.007Z,62.95
2023-02-04T15:11:52.510Z,62.95
2023-02-04T15:14:24.787Z,63.02
2023-02-04T15:16:57.012Z,63.10
2023-02-04T15:19:29.390Z,63.01
2023-02-04T15:22:01.813Z,63.03
2023-02-04T15:24:34.082Z,63.06
2023-02-04T15:27:07.088Z,63.05
2023-02-04T15:29:39.447Z,63.12
2023-02-04T15:32:11.698Z,63.15
2023-02-04T15:34:44.003Z,63.16
2023-02-04T15:37:16.209Z,63.21
2023-02-04T15:39:48.525Z,63.28
2023-02-04T15:42:20.855Z,63.33
2023-02-04T15:44:53.163Z,63.46
2023-02-04T15:47:25.439Z,63.32
2023-02-04T15:49:57.648Z,63.48
2023-02-04T15:52:30.123Z,63.41
2023-02-04T15:55:02.458Z,63.53
2023-02-04T15:57:34.855Z,63.65
2023-02-04T16:00:08.992Z,63.59
2023-02-04T16:02:41.244Z,63.73
2023-02-04T16:05:13.512Z,63.92
2023-02-04T16:07:45.703Z,63.80
2023-02-04T16:10:18.673Z,63.91
2023-02-04T16:12:51.542Z,63.83
2023-02-04T16:15:24.054Z,64.01
2023-02-04T16:17:57.213Z,64.14
2023-02-04T16:20:29.582Z,64.33
2023-02-04T16:23:03.086Z,64.32
2023-02-04T16:25:35.616Z,64.17
2023-02-04T16:28:08.198Z,64.39
2023-02-04T16:30:40.545Z,64.45
2023-02-04T16:33:13.106Z,64.70
2023-02-04T16:38:43.748Z,64.68
2023-02-04T16:41:16.016Z,64.79
2023-02-04T16:43:48.429Z,64.80
2023-02-04T16:46:21.286Z,64.80
2023-02-04T16:48:53.620Z,64.86
2023-02-04T16:51:26.187Z,64.94
2023-02-04T16:53:58.497Z,64.87
2023-02-04T16:56:35.764Z,64.90
2023-02-04T16:59:08.366Z,64.98
2023-02-04T17:01:41.077Z,65.13
2023-02-04T17:04:13.704Z,65.01
2023-02-04T17:06:46.090Z,65.30
2023-02-04T17:09:18.562Z,65.17
2023-02-04T17:11:51.237Z,65.20
2023-02-04T17:14:24.975Z,65.35
2023-02-04T17:16:57.254Z,65.38
2023-02-04T17:19:29.990Z,65.24
2023-02-04T17:22:02.361Z,65.64
2023-02-04T17:24:36.394Z,65.38
2023-02-04T17:27:08.792Z,65.37
2023-02-04T17:29:41.047Z,65.58
2023-02-04T17:32:13.518Z,65.46
2023-02-04T17:34:45.942Z,65.71
2023-02-04T17:37:18.253Z,65.76
2023-02-04T17:39:50.539Z,65.70
2023-02-04T17:42:22.893Z,65.80
2023-02-04T17:44:55.454Z,65.86
2023-02-04T17:47:27.686Z,65.76
2023-02-04T17:50:00.355Z,65.88
2023-02-04T17:52:34.272Z,65.87
2023-02-04T17:55:16.916Z,66.12
2023-02-04T17:57:49.230Z,66.15
2023-02-04T18:00:25.282Z,65.91
2023-02-04T18:02:58.344Z,65.74
2023-02-04T18:05:32.233Z,66.07
2023-02-04T18:08:14.723Z,66.00
2023-02-04T18:10:48.568Z,66.02
2023-02-04T18:13:23.420Z,66.29
2023-02-04T18:15:57.657Z,66.26
2023-02-04T18:18:32.964Z,66.27
2023-02-04T18:21:16.677Z,66.24
2023-02-04T18:23:49.894Z,66.27
2023-02-04T18:26:25.855Z,66.50
2023-02-04T18:29:00.158Z,66.37
2023-02-04T18:31:37.805Z,66.31
2023-02-04T18:34:21.275Z,66.51
2023-02-04T18:36:55.198Z,66.56
2023-02-04T18:39:34.206Z,66.33
2023-02-04T18:42:16.368Z,66.40
2023-02-04T18:44:49.005Z,66.37
2023-02-04T18:47:32.472Z,66.35
2023-02-04T18:50:19.189Z,66.37
2023-02-04T18:52:51.819Z,66.59
2023-02-04T18:55:30.710Z,66.72
2023-02-04T18:58:25.951Z,66.57
2023-02-04T19:01:00.177Z,66.38
2023-02-04T19:03:37.610Z,66.50
2023-02-04T19:06:29.344Z,66.27
2023-02-04T19:09:15.776Z,66.69
2023-02-04T19:11:51.216Z,66.40
2023-02-04T19:14:31.938Z,66.47
2023-02-04T19:17:22.674Z,66.36
2023-02-04T19:19:59.597Z,66.44
2023-02-04T19:22:46.313Z,66.53
2023-02-04T19:25:29.879Z,66.35
2023-02-04T19:28:04.081Z,66.37
2023-02-04T19:30:48.148Z,66.39
2023-02-04T19:33:23.211Z,66.47
2023-02-04T19:35:55.576Z,66.67
2023-02-04T19:38:39.014Z,66.54
2023-02-04T19:41:35.421Z,66.69
2023-02-04T19:44:41.306Z,66.59
2023-02-04T19:47:26.706Z,66.60
2023-02-04T19:50:21.398Z,66.44
2023-02-04T19:52:56.588Z,66.28
2023-02-04T19:55:33.714Z,66.51
2023-02-04T19:58:17.661Z,66.60
2023-02-04T20:01:00.859Z,66.39
2023-02-04T20:03:38.606Z,66.35
2023-02-04T20:06:31.079Z,66.43
2023-02-04T20:09:05.670Z,66.58
2023-02-04T20:11:54.015Z,66.43
2023-02-04T20:14:30.614Z,66.36
2023-02-04T20:17:05.879Z,66.30
2023-02-04T20:19:41.248Z,66.27
2023-02-04T20:22:36.535Z,66.43
2023-02-04T20:25:38.611Z,66.36
2023-02-04T20:28:44.898Z,66.40
2023-02-04T20:31:28.866Z,66.20
2023-02-04T20:34:02.082Z,66.41
2023-02-04T20:36:44.651Z,66.11
2023-02-04T20:39:40.148Z,66.54
2023-02-04T20:42:30.865Z,66.33
2023-02-04T20:45:34.143Z,65.93
2023-02-04T20:48:28.865Z,66.36
2023-02-04T20:51:04.058Z,66.37
2023-02-04T20:53:42.090Z,66.22
2023-02-04T20:56:27.687Z,65.98
2023-02-04T20:59:21.521Z,66.07
2023-02-04T21:01:53.943Z,66.12
2023-02-04T21:04:32.381Z,66.24
2023-02-04T21:07:14.452Z,66.30
2023-02-04T21:09:48.262Z,66.00
2023-02-04T21:12:21.790Z,66.03
2023-02-04T21:14:54.021Z,66.29
2023-02-04T21:17:26.421Z,65.93
2023-02-04T21:19:58.718Z,66.26
2023-02-04T21:22:30.968Z,65.98
2023-02-04T21:25:03.312Z,66.19
2023-02-04T21:27:35.571Z,66.13
2023-02-04T21:30:09.877Z,66.03
2023-02-04T21:32:42.234Z,66.14
2023-02-04T21:35:18.736Z,65.60
2023-02-04T21:37:51.162Z,66.26
2023-02-04T21:40:24.318Z,65.97
2023-02-04T21:42:57.144Z,65.96
2023-02-04T21:45:29.640Z,65.90
2023-02-04T21:48:01.925Z,65.96
2023-02-04T21:50:35.269Z,65.60
2023-02-04T21:53:08.188Z,66.25
2023-02-04T21:55:40.873Z,65.97
2023-02-04T21:58:13.171Z,66.23
2023-02-04T22:00:45.511Z,66.10
2023-02-04T22:03:17.944Z,66.54
2023-02-04T22:05:50.468Z,66.25
2023-02-04T22:08:22.771Z,65.99
2023-02-04T22:10:54.990Z,66.01
2023-02-04T22:13:27.332Z,66.17
2023-02-04T22:15:59.706Z,66.18
2023-02-04T22:18:32.065Z,66.20
2023-02-04T22:21:04.478Z,66.02
2023-02-04T22:23:36.782Z,65.88
2023-02-04T22:26:09.155Z,65.76
2023-02-04T22:28:41.444Z,66.04
2023-02-04T22:31:14.982Z,65.83
2023-02-04T22:33:47.276Z,65.79
2023-02-04T22:36:19.445Z,65.84
2023-02-04T22:38:51.809Z,65.75
2023-02-04T22:41:24.109Z,65.58
2023-02-04T22:43:56.455Z,65.66
2023-02-04T22:46:29.836Z,65.42
2023-02-04T22:49:02.218Z,65.35
2023-02-04T22:51:35.019Z,65.54
2023-02-04T22:54:07.518Z,65.40
2023-02-04T22:56:39.789Z,65.18
2023-02-04T22:59:12.172Z,65.24
2023-02-04T23:01:44.519Z,64.88
2023-02-04T23:04:16.767Z,64.77
2023-02-04T23:06:49.286Z,65.03
2023-02-04T23:09:22.356Z,65.02
2023-02-04T23:11:56.240Z,64.96
2023-02-04T23:14:28.602Z,65.05
2023-02-04T23:17:00.853Z,64.49
2023-02-04T23:19:33.266Z,64.44
2023-02-04T23:22:05.873Z,64.92
2023-02-04T23:24:38.316Z,64.75
2023-02-04T23:27:12.127Z,64.69
2023-02-04T23:29:44.447Z,64.87
2023-02-04T23:32:17.162Z,64.58
2023-02-04T23:34:49.342Z,64.16
2023-02-04T23:37:21.753Z,64.58
2023-02-04T23:39:53.934Z,64.14
2023-02-04T23:42:26.371Z,64.24
2023-02-04T23:44:58.807Z,64.12
2023-02-04T23:47:31.113Z,63.98
2023-02-04T23:50:03.331Z,64.08
2023-02-04T23:52:35.672Z,64.02
2023-02-04T23:55:09.504Z,64.00
2023-02-04T23:57:41.802Z,64.14
